TCA7378 MDLR-TJSJ
Flight info
| Callsign | TCA7378 |
|---|---|
| Flight time | 0h 33m |
| Altitude | 21000 |
| Route | MELLA2M MELLA DCT JOSHE DCT SJU |
| Aircraft | B738/M-SDE2E3FGHIRWXY/LB1 |
Departure
| Time | 2026-04-25 12:18 |
|---|---|
| Airport | Casa De Campo International Airport (MDLR) |
Arrival
| Time | 2026-04-25 12:52 |
|---|---|
| Airport | Luis Munoz Marin International Airport (TJSJ) |
| Time | Latitude | Longitude | Altitude | Speed | Heading |
|---|---|---|---|---|---|
| 2026-04-25 11:10 | 18.44928 | -68.91204 | 219 ft | 0 kts | 188° |
| 2026-04-25 12:11 | 18.44936 | -68.91202 | 219 ft | 4 kts | 188° |
| 2026-04-25 12:11 | 18.44963 | -68.91198 | 219 ft | 4 kts | 188° |
| 2026-04-25 12:11 | 18.44984 | -68.91194 | 219 ft | 4 kts | 194° |
| 2026-04-25 12:12 | 18.45010 | -68.91186 | 219 ft | 4 kts | 207° |
| 2026-04-25 12:12 | 18.45025 | -68.91176 | 219 ft | 4 kts | 220° |
| 2026-04-25 12:12 | 18.45034 | -68.91167 | 219 ft | 1 kts | 227° |
| 2026-04-25 12:14 | 18.45024 | -68.91184 | 219 ft | 8 kts | 245° |
| 2026-04-25 12:14 | 18.45025 | -68.91272 | 219 ft | 15 kts | 276° |
| 2026-04-25 12:15 | 18.45038 | -68.91392 | 221 ft | 17 kts | 276° |
| 2026-04-25 12:15 | 18.45055 | -68.91544 | 217 ft | 22 kts | 276° |
| 2026-04-25 12:15 | 18.45145 | -68.91608 | 223 ft | 18 kts | 5° |
| 2026-04-25 12:15 | 18.45275 | -68.91600 | 221 ft | 19 kts | 342° |
| 2026-04-25 12:16 | 18.45317 | -68.91728 | 222 ft | 21 kts | 276° |
| 2026-04-25 12:16 | 18.45338 | -68.91897 | 220 ft | 25 kts | 277° |
| 2026-04-25 12:16 | 18.45360 | -68.92082 | 222 ft | 26 kts | 277° |
| 2026-04-25 12:16 | 18.45382 | -68.92274 | 220 ft | 27 kts | 277° |
| 2026-04-25 12:17 | 18.45366 | -68.92456 | 222 ft | 25 kts | 244° |
| 2026-04-25 12:17 | 18.45401 | -68.92450 | 218 ft | 18 kts | 98° |
| 2026-04-25 12:17 | 18.45363 | -68.92111 | 222 ft | 81 kts | 97° |
| 2026-04-25 12:17 | 18.45267 | -68.91296 | 220 ft | 141 kts | 97° |
| 2026-04-25 12:18 | 18.45138 | -68.90168 | 565 ft | 159 kts | 96° |
| 2026-04-25 12:18 | 18.44992 | -68.88967 | 1104 ft | 172 kts | 98° |
| 2026-04-25 12:18 | 18.44808 | -68.87695 | 1733 ft | 176 kts | 97° |
| 2026-04-25 12:18 | 18.44652 | -68.86401 | 2269 ft | 190 kts | 96° |
| 2026-04-25 12:19 | 18.44072 | -68.83930 | 2640 ft | 227 kts | 105° |
| 2026-04-25 12:19 | 18.43438 | -68.81739 | 2932 ft | 247 kts | 106° |
| 2026-04-25 12:19 | 18.42921 | -68.79967 | 3385 ft | 257 kts | 107° |
| 2026-04-25 12:20 | 18.42396 | -68.78150 | 4076 ft | 261 kts | 108° |
| 2026-04-25 12:20 | 18.41867 | -68.76312 | 4780 ft | 264 kts | 109° |
| 2026-04-25 12:20 | 18.41329 | -68.74438 | 5348 ft | 272 kts | 109° |
| 2026-04-25 12:20 | 18.40779 | -68.72513 | 6021 ft | 276 kts | 109° |
| 2026-04-25 12:21 | 18.40225 | -68.70574 | 6778 ft | 277 kts | 109° |
| 2026-04-25 12:21 | 18.39666 | -68.68613 | 7436 ft | 282 kts | 109° |
| 2026-04-25 12:21 | 18.39102 | -68.66642 | 8070 ft | 287 kts | 109° |
| 2026-04-25 12:21 | 18.38524 | -68.64618 | 8777 ft | 290 kts | 109° |
| 2026-04-25 12:22 | 18.37940 | -68.62571 | 9461 ft | 294 kts | 109° |
| 2026-04-25 12:22 | 18.37346 | -68.60486 | 10107 ft | 300 kts | 109° |
| 2026-04-25 12:22 | 18.36733 | -68.58339 | 10584 ft | 313 kts | 109° |
| 2026-04-25 12:22 | 18.36095 | -68.56112 | 11188 ft | 320 kts | 108° |
| 2026-04-25 12:23 | 18.35452 | -68.53855 | 11870 ft | 325 kts | 108° |
| 2026-04-25 12:23 | 18.34798 | -68.51562 | 12568 ft | 330 kts | 108° |
| 2026-04-25 12:23 | 18.34133 | -68.49231 | 13247 ft | 335 kts | 108° |
| 2026-04-25 12:23 | 18.33466 | -68.46897 | 13956 ft | 340 kts | 108° |
| 2026-04-25 12:24 | 18.32783 | -68.44505 | 14668 ft | 344 kts | 109° |
| 2026-04-25 12:24 | 18.32087 | -68.42076 | 15330 ft | 349 kts | 109° |
| 2026-04-25 12:24 | 18.31382 | -68.39610 | 15977 ft | 354 kts | 109° |
| 2026-04-25 12:24 | 18.30667 | -68.37110 | 16623 ft | 359 kts | 109° |
| 2026-04-25 12:25 | 18.29942 | -68.34579 | 17256 ft | 364 kts | 109° |
| 2026-04-25 12:25 | 18.29206 | -68.32015 | 17907 ft | 368 kts | 109° |
| 2026-04-25 12:25 | 18.28461 | -68.29420 | 18510 ft | 373 kts | 109° |
| 2026-04-25 12:25 | 18.27716 | -68.26826 | 19104 ft | 377 kts | 110° |
| 2026-04-25 12:26 | 18.26955 | -68.24175 | 19726 ft | 380 kts | 110° |
| 2026-04-25 12:26 | 18.26186 | -68.21494 | 20320 ft | 384 kts | 110° |
| 2026-04-25 12:26 | 18.25410 | -68.18794 | 20887 ft | 389 kts | 110° |
| 2026-04-25 12:26 | 18.24621 | -68.16051 | 20956 ft | 395 kts | 110° |
| 2026-04-25 12:27 | 18.23820 | -68.13273 | 20972 ft | 399 kts | 110° |
| 2026-04-25 12:27 | 18.23019 | -68.10483 | 20970 ft | 397 kts | 110° |
| 2026-04-25 12:27 | 18.22221 | -68.07704 | 20971 ft | 396 kts | 110° |
| 2026-04-25 12:27 | 18.21423 | -68.04933 | 20973 ft | 395 kts | 110° |
| 2026-04-25 12:28 | 18.20627 | -68.02173 | 20975 ft | 394 kts | 110° |
| 2026-04-25 12:28 | 18.19956 | -67.99331 | 20968 ft | 412 kts | 97° |
| 2026-04-25 12:28 | 18.19968 | -67.96295 | 21007 ft | 428 kts | 89° |
| 2026-04-25 12:28 | 18.20100 | -67.93126 | 20981 ft | 440 kts | 89° |
| 2026-04-25 12:29 | 18.20245 | -67.89878 | 20979 ft | 445 kts | 89° |
| 2026-04-25 12:29 | 18.20382 | -67.86639 | 20965 ft | 442 kts | 89° |
| 2026-04-25 12:29 | 18.20507 | -67.83425 | 20962 ft | 438 kts | 89° |
| 2026-04-25 12:29 | 18.20620 | -67.80233 | 20961 ft | 436 kts | 89° |
| 2026-04-25 12:30 | 18.20726 | -67.77048 | 20967 ft | 435 kts | 89° |
| 2026-04-25 12:30 | 18.20826 | -67.73870 | 20973 ft | 435 kts | 90° |
| 2026-04-25 12:30 | 18.20922 | -67.70728 | 20982 ft | 436 kts | 90° |
| 2026-04-25 12:30 | 18.21018 | -67.67532 | 20969 ft | 438 kts | 90° |
| 2026-04-25 12:31 | 18.21114 | -67.64326 | 20971 ft | 440 kts | 90° |
| 2026-04-25 12:31 | 18.21211 | -67.61145 | 20957 ft | 428 kts | 90° |
| 2026-04-25 12:31 | 18.21305 | -67.58076 | 20963 ft | 412 kts | 90° |
| 2026-04-25 12:31 | 18.21395 | -67.55108 | 20755 ft | 403 kts | 90° |
| 2026-04-25 12:32 | 18.21481 | -67.52229 | 20497 ft | 396 kts | 90° |
| 2026-04-25 12:32 | 18.21567 | -67.49311 | 20120 ft | 392 kts | 90° |
| 2026-04-25 12:32 | 18.21650 | -67.46455 | 19761 ft | 389 kts | 90° |
| 2026-04-25 12:32 | 18.21731 | -67.43656 | 19402 ft | 386 kts | 90° |
| 2026-04-25 12:33 | 18.21813 | -67.40845 | 19035 ft | 383 kts | 90° |
| 2026-04-25 12:33 | 18.21894 | -67.38051 | 18666 ft | 381 kts | 90° |
| 2026-04-25 12:33 | 18.21973 | -67.35277 | 18301 ft | 378 kts | 90° |
| 2026-04-25 12:33 | 18.22052 | -67.32521 | 17940 ft | 376 kts | 90° |
| 2026-04-25 12:34 | 18.22130 | -67.29783 | 17570 ft | 373 kts | 90° |
| 2026-04-25 12:34 | 18.22207 | -67.27064 | 17209 ft | 370 kts | 90° |
| 2026-04-25 12:34 | 18.22282 | -67.24402 | 16867 ft | 368 kts | 90° |
| 2026-04-25 12:34 | 18.22333 | -67.22595 | 16628 ft | 366 kts | 90° |
| 2026-04-25 12:35 | 18.22432 | -67.19064 | 16155 ft | 362 kts | 90° |
| 2026-04-25 12:35 | 18.22506 | -67.16423 | 15802 ft | 360 kts | 90° |
| 2026-04-25 12:35 | 18.22581 | -67.13807 | 15447 ft | 357 kts | 89° |
| 2026-04-25 12:35 | 18.22653 | -67.11204 | 15095 ft | 355 kts | 90° |
| 2026-04-25 12:36 | 18.22723 | -67.08611 | 14764 ft | 352 kts | 89° |
| 2026-04-25 12:36 | 18.22793 | -67.06051 | 14405 ft | 350 kts | 90° |
| 2026-04-25 12:36 | 18.22861 | -67.03502 | 14036 ft | 348 kts | 89° |
| 2026-04-25 12:36 | 18.22929 | -67.00999 | 13709 ft | 345 kts | 89° |
| 2026-04-25 12:37 | 18.22997 | -66.98489 | 13364 ft | 342 kts | 90° |
| 2026-04-25 12:37 | 18.23062 | -66.95997 | 13017 ft | 339 kts | 89° |
| 2026-04-25 12:37 | 18.23128 | -66.93528 | 12670 ft | 336 kts | 89° |
| 2026-04-25 12:37 | 18.23193 | -66.91077 | 12346 ft | 334 kts | 89° |
| 2026-04-25 12:38 | 18.23258 | -66.88647 | 12003 ft | 331 kts | 89° |
| 2026-04-25 12:38 | 18.23322 | -66.86229 | 11669 ft | 330 kts | 90° |
| 2026-04-25 12:38 | 18.23385 | -66.83821 | 11330 ft | 328 kts | 90° |
| 2026-04-25 12:38 | 18.23449 | -66.81428 | 10987 ft | 326 kts | 90° |
| 2026-04-25 12:39 | 18.23511 | -66.79110 | 10649 ft | 316 kts | 90° |
| 2026-04-25 12:39 | 18.23570 | -66.76841 | 10328 ft | 305 kts | 90° |
| 2026-04-25 12:39 | 18.23625 | -66.74658 | 10134 ft | 292 kts | 90° |
| 2026-04-25 12:39 | 18.23679 | -66.72534 | 10043 ft | 289 kts | 90° |
| 2026-04-25 12:40 | 18.23732 | -66.70409 | 9781 ft | 293 kts | 90° |
| 2026-04-25 12:40 | 18.23786 | -66.68252 | 9497 ft | 295 kts | 91° |
| 2026-04-25 12:40 | 18.23839 | -66.66104 | 9211 ft | 292 kts | 91° |
| 2026-04-25 12:40 | 18.23893 | -66.63973 | 8913 ft | 290 kts | 91° |
| 2026-04-25 12:41 | 18.23946 | -66.61886 | 8648 ft | 288 kts | 91° |
| 2026-04-25 12:41 | 18.24000 | -66.59781 | 8342 ft | 288 kts | 91° |
| 2026-04-25 12:41 | 18.24052 | -66.57685 | 8045 ft | 286 kts | 91° |
| 2026-04-25 12:41 | 18.24102 | -66.55620 | 7740 ft | 278 kts | 91° |
| 2026-04-25 12:42 | 18.24152 | -66.53609 | 7471 ft | 274 kts | 91° |
| 2026-04-25 12:42 | 18.24186 | -66.52281 | 7288 ft | 274 kts | 91° |
| 2026-04-25 12:42 | 18.24753 | -66.49702 | 7028 ft | 274 kts | 60° |
| 2026-04-25 12:42 | 18.25811 | -66.48044 | 6996 ft | 273 kts | 57° |
| 2026-04-25 12:43 | 18.26905 | -66.46383 | 6790 ft | 278 kts | 58° |
| 2026-04-25 12:43 | 18.27989 | -66.44719 | 6654 ft | 281 kts | 58° |
| 2026-04-25 12:43 | 18.30148 | -66.41317 | 6250 ft | 276 kts | 58° |
| 2026-04-25 12:44 | 18.31199 | -66.39642 | 5947 ft | 271 kts | 58° |
| 2026-04-25 12:44 | 18.32219 | -66.38012 | 5636 ft | 262 kts | 59° |
| 2026-04-25 12:44 | 18.34138 | -66.34918 | 5021 ft | 245 kts | 59° |
| 2026-04-25 12:45 | 18.35043 | -66.33456 | 4895 ft | 231 kts | 60° |
| 2026-04-25 12:45 | 18.35889 | -66.32063 | 4712 ft | 220 kts | 59° |
| 2026-04-25 12:45 | 18.37456 | -66.29510 | 4449 ft | 205 kts | 59° |
| 2026-04-25 12:46 | 18.38238 | -66.28264 | 4341 ft | 202 kts | 59° |
| 2026-04-25 12:46 | 18.39007 | -66.27035 | 4226 ft | 200 kts | 59° |
| 2026-04-25 12:46 | 18.39766 | -66.25813 | 4099 ft | 200 kts | 59° |
| 2026-04-25 12:46 | 18.40523 | -66.24590 | 3953 ft | 199 kts | 60° |
| 2026-04-25 12:47 | 18.41271 | -66.23378 | 3807 ft | 201 kts | 59° |
| 2026-04-25 12:47 | 18.42050 | -66.22118 | 3621 ft | 204 kts | 59° |
| 2026-04-25 12:47 | 18.42805 | -66.20897 | 3397 ft | 199 kts | 59° |
| 2026-04-25 12:47 | 18.43368 | -66.19617 | 3253 ft | 189 kts | 86° |
| 2026-04-25 12:48 | 18.43358 | -66.18243 | 3074 ft | 192 kts | 93° |
| 2026-04-25 12:48 | 18.43374 | -66.16824 | 2823 ft | 194 kts | 91° |
| 2026-04-25 12:48 | 18.43384 | -66.15405 | 2555 ft | 193 kts | 92° |
| 2026-04-25 12:48 | 18.43382 | -66.14005 | 2300 ft | 188 kts | 92° |
| 2026-04-25 12:49 | 18.43379 | -66.12671 | 2048 ft | 177 kts | 92° |
| 2026-04-25 12:49 | 18.43374 | -66.11414 | 1858 ft | 169 kts | 92° |
| 2026-04-25 12:49 | 18.43373 | -66.10214 | 1609 ft | 161 kts | 92° |
| 2026-04-25 12:49 | 18.43370 | -66.09058 | 1402 ft | 155 kts | 92° |
| 2026-04-25 12:50 | 18.43366 | -66.07926 | 1188 ft | 154 kts | 92° |
| 2026-04-25 12:50 | 18.43365 | -66.06800 | 993 ft | 154 kts | 92° |
| 2026-04-25 12:50 | 18.43362 | -66.05670 | 795 ft | 155 kts | 91° |
| 2026-04-25 12:50 | 18.43360 | -66.04518 | 590 ft | 159 kts | 89° |
| 2026-04-25 12:51 | 18.43358 | -66.03350 | 370 ft | 159 kts | 89° |
| 2026-04-25 12:51 | 18.43356 | -66.02189 | 158 ft | 157 kts | 90° |
| 2026-04-25 12:51 | 18.43358 | -66.01063 | -37 ft | 153 kts | 90° |
| 2026-04-25 12:51 | 18.43355 | -66.00102 | -45 ft | 101 kts | 90° |
| 2026-04-25 12:52 | 18.43355 | -65.99650 | -43 ft | 33 kts | 85° |
| 2026-04-25 12:52 | 18.43415 | -65.99550 | -29 ft | 0 kts | 359° |
| 2026-04-25 12:53 | 18.43421 | -65.99550 | -34 ft | 5 kts | 359° |
| 2026-04-25 12:54 | 18.43464 | -65.99598 | -38 ft | 16 kts | 275° |
| 2026-04-25 12:54 | 18.43465 | -65.99741 | -37 ft | 22 kts | 270° |
| 2026-04-25 12:54 | 18.43466 | -65.99908 | -35 ft | 23 kts | 270° |
| 2026-04-25 12:54 | 18.43467 | -66.00088 | -31 ft | 26 kts | 270° |
| 2026-04-25 12:55 | 18.43467 | -66.00250 | -33 ft | 20 kts | 269° |
| 2026-04-25 12:55 | 18.43467 | -66.00341 | -39 ft | 18 kts | 270° |
| 2026-04-25 12:55 | 18.43543 | -66.00420 | -28 ft | 11 kts | 3° |
| 2026-04-25 12:55 | 18.43568 | -66.00418 | -34 ft | 0 kts | 2° |